createdAt,value
2016-12-07T00:00:00.628Z,0
2016-12-07T00:01:00.701Z,0
2016-12-07T00:02:00.930Z,0
2016-12-07T00:03:00.987Z,0
2016-12-07T00:04:00.846Z,0
2016-12-07T00:05:00.919Z,0
2016-12-07T00:06:00.964Z,0
2016-12-07T00:07:01.022Z,0
2016-12-07T00:08:01.078Z,0
2016-12-07T00:09:01.123Z,0
2016-12-07T00:10:01.162Z,0
2016-12-07T00:11:01.272Z,0
2016-12-07T00:12:01.305Z,0
2016-12-07T00:13:01.357Z,0
2016-12-07T00:14:01.405Z,0
2016-12-07T00:15:01.798Z,0
2016-12-07T00:16:01.513Z,0
2016-12-07T00:17:01.587Z,0
2016-12-07T00:18:01.652Z,0
2016-12-07T00:19:01.733Z,0
2016-12-07T00:20:01.743Z,0
2016-12-07T00:21:01.809Z,0
2016-12-07T00:22:01.958Z,0
2016-12-07T00:23:01.929Z,0
2016-12-07T00:24:01.962Z,0
2016-12-07T00:25:02.022Z,0
2016-12-07T00:26:02.094Z,0
2016-12-07T00:27:02.133Z,0
2016-12-07T00:28:02.200Z,0
2016-12-07T00:29:02.235Z,0
2016-12-07T00:30:02.288Z,0
2016-12-07T00:31:02.557Z,0
2016-12-07T00:32:02.432Z,0
2016-12-07T00:33:02.693Z,0
2016-12-07T00:34:02.525Z,0
2016-12-07T00:35:02.594Z,0
2016-12-07T00:36:02.658Z,0
2016-12-07T00:37:02.710Z,0
2016-12-07T00:38:02.779Z,0
2016-12-07T00:39:02.802Z,0
2016-12-07T00:40:03.164Z,0
2016-12-07T00:41:02.901Z,0
2016-12-07T00:42:02.991Z,0
2016-12-07T00:43:03.039Z,0
2016-12-07T00:44:03.086Z,0
2016-12-07T00:45:03.171Z,0
2016-12-07T00:46:03.212Z,0
2016-12-07T00:47:03.452Z,0
2016-12-07T00:48:03.301Z,0
2016-12-07T00:49:03.388Z,0
2016-12-07T00:50:03.439Z,0
2016-12-07T00:51:03.467Z,0
2016-12-07T00:52:03.567Z,0
2016-12-07T00:53:03.609Z,0
2016-12-07T00:54:03.679Z,0
2016-12-07T00:55:03.700Z,0
2016-12-07T00:56:03.745Z,0
2016-12-07T00:57:03.846Z,0
2016-12-07T00:58:03.922Z,0
2016-12-07T00:59:04.383Z,0
2016-12-07T01:00:04.218Z,0
2016-12-07T01:01:04.054Z,0
2016-12-07T01:02:04.108Z,0
2016-12-07T01:03:04.453Z,0
2016-12-07T01:04:04.209Z,0
2016-12-07T01:05:04.264Z,0
2016-12-07T01:06:04.346Z,0
2016-12-07T01:07:04.392Z,0
2016-12-07T01:08:04.458Z,0
2016-12-07T01:09:04.486Z,0
2016-12-07T01:10:04.546Z,0
2016-12-07T01:11:04.598Z,0
2016-12-07T01:12:04.679Z,0
2016-12-07T01:13:04.723Z,0
2016-12-07T01:14:04.789Z,0
2016-12-07T01:15:04.829Z,0
2016-12-07T01:16:04.914Z,0
2016-12-07T01:17:04.936Z,0
2016-12-07T01:18:04.986Z,0
2016-12-07T01:19:05.062Z,0
2016-12-07T01:20:05.102Z,0
2016-12-07T01:21:05.181Z,0
2016-12-07T01:22:05.254Z,0
2016-12-07T01:23:05.268Z,0
2016-12-07T01:24:05.320Z,0
2016-12-07T01:25:05.398Z,0
2016-12-07T01:26:05.750Z,0
2016-12-07T01:27:05.511Z,0
2016-12-07T01:28:05.748Z,0
2016-12-07T01:29:05.803Z,0
2016-12-07T01:30:05.656Z,0
2016-12-07T01:31:06.054Z,0
2016-12-07T01:32:05.779Z,0
2016-12-07T01:33:05.848Z,0
2016-12-07T01:34:05.908Z,0
2016-12-07T01:35:05.984Z,0
2016-12-07T01:36:06.015Z,0
2016-12-07T01:37:06.082Z,0
2016-12-07T01:38:06.140Z,0
2016-12-07T01:39:06.205Z,0
2016-12-07T01:40:06.231Z,0
2016-12-07T01:41:06.302Z,0
2016-12-07T01:42:06.343Z,0
2016-12-07T01:43:06.403Z,0
2016-12-07T01:44:06.471Z,0
2016-12-07T01:45:06.492Z,0
2016-12-07T01:46:06.566Z,0
2016-12-07T01:47:06.616Z,0
2016-12-07T01:48:06.673Z,0
2016-12-07T01:49:06.744Z,0
2016-12-07T01:50:06.810Z,0
2016-12-07T01:51:06.859Z,0
2016-12-07T01:52:06.898Z,0
2016-12-07T01:53:06.983Z,0
2016-12-07T01:54:07.050Z,0
2016-12-07T01:55:07.062Z,0
2016-12-07T01:56:07.121Z,0
2016-12-07T01:57:07.388Z,0
2016-12-07T01:58:07.474Z,0
2016-12-07T01:59:07.343Z,0
2016-12-07T02:00:07.344Z,0
2016-12-07T02:01:07.404Z,0
2016-12-07T02:02:07.755Z,0
2016-12-07T02:03:07.498Z,0
2016-12-07T02:04:07.594Z,0
2016-12-07T02:05:07.656Z,0
2016-12-07T02:06:07.680Z,0
2016-12-07T02:07:07.732Z,0
2016-12-07T02:08:07.792Z,0
2016-12-07T02:09:07.855Z,0
2016-12-07T02:10:07.909Z,0
2016-12-07T02:11:07.965Z,0
2016-12-07T02:12:08.008Z,0
2016-12-07T02:13:08.056Z,0
2016-12-07T02:14:08.132Z,0
2016-12-07T02:15:08.190Z,0
2016-12-07T02:16:08.231Z,0
2016-12-07T02:17:08.323Z,0
2016-12-07T02:18:08.336Z,0
2016-12-07T02:19:08.412Z,0
2016-12-07T02:20:08.470Z,0
2016-12-07T02:21:08.523Z,0
2016-12-07T02:22:08.573Z,0
2016-12-07T02:23:08.645Z,0
2016-12-07T02:24:08.698Z,0
2016-12-07T02:25:08.749Z,0
2016-12-07T02:26:08.782Z,0
2016-12-07T02:27:08.855Z,0
2016-12-07T02:28:08.931Z,0
2016-12-07T02:29:08.961Z,0
2016-12-07T02:30:09.054Z,0
2016-12-07T02:31:09.071Z,0
2016-12-07T02:32:09.144Z,0
2016-12-07T02:33:09.184Z,0
2016-12-07T02:34:09.248Z,0
2016-12-07T02:35:09.324Z,0
2016-12-07T02:36:09.347Z,0
2016-12-07T02:37:09.404Z,0
2016-12-07T02:38:09.475Z,0
2016-12-07T02:39:09.549Z,0
2016-12-07T02:40:09.596Z,0
2016-12-07T02:41:09.649Z,0
2016-12-07T02:42:09.692Z,0
2016-12-07T02:43:09.755Z,0
2016-12-07T02:44:09.805Z,0
2016-12-07T02:45:09.870Z,0
2016-12-07T02:46:09.925Z,0
2016-12-07T02:47:09.971Z,0
2016-12-07T02:48:10.038Z,0
2016-12-07T02:49:10.079Z,0
2016-12-07T02:50:10.154Z,0
2016-12-07T02:51:10.178Z,0
2016-12-07T02:52:10.257Z,0
2016-12-07T02:53:10.321Z,0
2016-12-07T02:54:10.368Z,0
2016-12-07T02:55:10.394Z,0
2016-12-07T02:56:10.501Z,0
2016-12-07T02:57:10.522Z,0
2016-12-07T02:58:10.598Z,0
2016-12-07T02:59:10.624Z,0
2016-12-07T03:00:10.688Z,0
2016-12-07T03:01:10.777Z,0
2016-12-07T03:02:10.820Z,0
2016-12-07T03:03:10.880Z,0
2016-12-07T03:04:10.919Z,0
2016-12-07T03:05:10.973Z,0
2016-12-07T03:06:11.021Z,0
2016-12-07T03:07:11.103Z,0
2016-12-07T03:08:11.169Z,0
2016-12-07T03:09:11.205Z,0
2016-12-07T03:10:11.265Z,0
2016-12-07T03:11:11.288Z,0
2016-12-07T03:12:11.684Z,0
2016-12-07T03:13:11.435Z,0
2016-12-07T03:14:11.483Z,0
2016-12-07T03:15:11.541Z,0
2016-12-07T03:16:11.609Z,0
2016-12-07T03:17:11.656Z,0
2016-12-07T03:18:11.720Z,0
2016-12-07T03:19:11.759Z,0
2016-12-07T03:20:11.811Z,0
2016-12-07T03:21:12.190Z,0
2016-12-07T03:22:11.932Z,0
2016-12-07T03:23:11.988Z,0
2016-12-07T03:24:12.019Z,0
2016-12-07T03:25:12.083Z,0
2016-12-07T03:26:12.177Z,0
2016-12-07T03:27:12.206Z,0
2016-12-07T03:28:12.261Z,0
2016-12-07T03:29:12.302Z,0
2016-12-07T03:30:12.391Z,0
2016-12-07T03:31:12.433Z,0
2016-12-07T03:32:12.486Z,0
2016-12-07T03:33:12.538Z,0
2016-12-07T03:34:12.585Z,0
2016-12-07T03:35:12.662Z,0
2016-12-07T03:36:12.697Z,0
2016-12-07T03:37:12.756Z,0
2016-12-07T03:38:44.899Z,0
2016-12-07T03:39:12.883Z,0
2016-12-07T03:40:12.924Z,0
2016-12-07T03:41:12.988Z,0
2016-12-07T03:42:13.077Z,0
2016-12-07T03:43:13.109Z,0
2016-12-07T03:44:13.164Z,0
2016-12-07T03:45:13.230Z,0
2016-12-07T03:46:13.260Z,0
2016-12-07T03:47:13.318Z,0
2016-12-07T03:48:13.372Z,0
2016-12-07T03:49:13.443Z,0
2016-12-07T03:50:13.516Z,0
2016-12-07T03:51:13.549Z,0
2016-12-07T03:52:13.618Z,0
2016-12-07T03:53:13.646Z,0
2016-12-07T03:54:13.708Z,0
2016-12-07T03:55:13.763Z,0
2016-12-07T03:56:13.830Z,0
2016-12-07T03:57:13.889Z,0
2016-12-07T03:58:13.945Z,0
2016-12-07T03:59:14.002Z,0
2016-12-07T04:00:14.059Z,0
2016-12-07T04:01:14.121Z,0
2016-12-07T04:02:14.167Z,0
2016-12-07T04:03:14.229Z,0
2016-12-07T04:04:14.277Z,0
2016-12-07T04:05:14.330Z,0
2016-12-07T04:06:14.403Z,0
2016-12-07T04:07:14.435Z,0
2016-12-07T04:08:14.506Z,0
2016-12-07T04:09:14.552Z,0
2016-12-07T04:10:14.612Z,0
2016-12-07T04:11:14.674Z,0
2016-12-07T04:12:14.724Z,0
2016-12-07T04:13:14.777Z,0
2016-12-07T04:14:14.866Z,0
2016-12-07T04:15:14.881Z,0
2016-12-07T04:16:14.938Z,0
2016-12-07T04:17:15.000Z,0
2016-12-07T04:18:15.088Z,0
2016-12-07T04:19:15.113Z,0
2016-12-07T04:20:15.177Z,0
2016-12-07T04:21:15.252Z,0
2016-12-07T04:22:15.318Z,0
2016-12-07T04:23:15.343Z,0
2016-12-07T04:24:15.435Z,0
2016-12-07T04:25:15.773Z,0
2016-12-07T04:26:15.525Z,0
2016-12-07T04:27:15.574Z,0
2016-12-07T04:28:15.645Z,0
2016-12-07T04:29:15.686Z,0
2016-12-07T04:30:15.710Z,0
2016-12-07T04:31:15.781Z,0
2016-12-07T04:32:15.842Z,0
2016-12-07T04:33:15.887Z,0
2016-12-07T04:34:15.943Z,0
2016-12-07T04:35:16.004Z,0
2016-12-07T04:36:16.082Z,0
2016-12-07T04:37:16.138Z,0
2016-12-07T04:38:16.180Z,0
2016-12-07T04:39:16.213Z,0
2016-12-07T04:40:16.308Z,0
2016-12-07T04:41:16.327Z,0
2016-12-07T04:42:16.417Z,0
2016-12-07T04:43:16.471Z,0
2016-12-07T04:44:16.502Z,0
2016-12-07T04:45:16.574Z,0
2016-12-07T04:46:16.637Z,0
2016-12-07T04:47:16.701Z,0
2016-12-07T04:48:16.732Z,0
2016-12-07T04:49:16.805Z,0
2016-12-07T04:50:16.845Z,0
2016-12-07T04:51:16.888Z,0
2016-12-07T04:52:16.950Z,0
2016-12-07T04:53:17.029Z,0
2016-12-07T04:54:17.097Z,0
2016-12-07T04:55:17.128Z,0
2016-12-07T04:56:17.471Z,0
2016-12-07T04:57:17.269Z,0
2016-12-07T04:58:17.291Z,0
2016-12-07T04:59:17.345Z,0
2016-12-07T05:00:17.382Z,0
2016-12-07T05:01:17.488Z,0
2016-12-07T05:02:17.524Z,0
2016-12-07T05:03:17.580Z,0
2016-12-07T05:04:17.618Z,0
2016-12-07T05:05:17.714Z,0
2016-12-07T05:06:17.720Z,0
2016-12-07T05:07:17.796Z,0
2016-12-07T05:08:17.840Z,0
2016-12-07T05:09:17.936Z,0
2016-12-07T05:10:17.984Z,0
2016-12-07T05:11:18.011Z,0
2016-12-07T05:12:18.082Z,0
2016-12-07T05:13:18.141Z,0
2016-12-07T05:14:18.205Z,0
2016-12-07T05:15:18.263Z,0
2016-12-07T05:16:18.313Z,0
2016-12-07T05:17:18.359Z,0
2016-12-07T05:18:18.425Z,0
2016-12-07T05:19:18.473Z,0
2016-12-07T05:20:18.543Z,0
2016-12-07T05:21:18.569Z,0
2016-12-07T05:22:18.653Z,0
2016-12-07T05:23:18.979Z,0
2016-12-07T05:24:18.758Z,0
2016-12-07T05:25:18.778Z,0
2016-12-07T05:26:18.841Z,0
2016-12-07T05:27:18.918Z,0
2016-12-07T05:28:18.959Z,0
2016-12-07T05:29:19.041Z,0
2016-12-07T05:30:19.098Z,0
2016-12-07T05:31:19.134Z,0
2016-12-07T05:32:19.195Z,0
2016-12-07T05:33:19.240Z,0
2016-12-07T05:34:19.308Z,0
2016-12-07T05:35:19.341Z,0
2016-12-07T05:36:19.403Z,0
2016-12-07T05:37:19.504Z,0
2016-12-07T05:38:19.535Z,0
2016-12-07T05:39:19.603Z,0
2016-12-07T05:40:19.651Z,0
2016-12-07T05:41:19.697Z,0
2016-12-07T05:42:19.746Z,0
2016-12-07T05:43:19.819Z,0
2016-12-07T05:44:19.863Z,0
2016-12-07T05:45:19.931Z,0
2016-12-07T05:46:19.995Z,0
2016-12-07T05:47:20.036Z,0
2016-12-07T05:48:20.069Z,0
2016-12-07T05:49:20.165Z,0
2016-12-07T05:50:20.201Z,0
2016-12-07T05:51:20.256Z,0
2016-12-07T05:52:20.321Z,0
2016-12-07T05:53:20.391Z,0
2016-12-07T05:54:20.423Z,0
2016-12-07T05:55:20.465Z,0
2016-12-07T05:56:20.843Z,0
2016-12-07T05:57:20.577Z,0
2016-12-07T05:58:20.632Z,0
2016-12-07T05:59:20.714Z,0
2016-12-07T06:00:20.744Z,0
2016-12-07T06:01:21.124Z,0
2016-12-07T06:02:20.877Z,0
2016-12-07T06:03:20.918Z,0
2016-12-07T06:04:20.965Z,0
2016-12-07T06:05:21.045Z,0
2016-12-07T06:06:21.068Z,0
2016-12-07T06:07:21.159Z,0
2016-12-07T06:08:21.215Z,0
2016-12-07T06:09:21.270Z,0
2016-12-07T06:10:21.318Z,0
2016-12-07T06:11:21.345Z,0
2016-12-07T06:12:21.413Z,0
2016-12-07T06:13:21.486Z,0
2016-12-07T06:14:21.527Z,0
2016-12-07T06:15:21.570Z,0
2016-12-07T06:16:21.652Z,0
2016-12-07T06:17:21.727Z,0
2016-12-07T06:18:21.754Z,0
2016-12-07T06:19:21.848Z,0
2016-12-07T06:20:21.884Z,0
2016-12-07T06:21:21.913Z,0
2016-12-07T06:22:22.010Z,0
2016-12-07T06:23:22.057Z,0
2016-12-07T06:24:22.430Z,0
2016-12-07T06:25:22.155Z,0
2016-12-07T06:26:22.224Z,0
2016-12-07T06:27:22.260Z,0
2016-12-07T06:28:22.319Z,0
2016-12-07T06:29:22.386Z,0
2016-12-07T06:30:22.437Z,0
2016-12-07T06:31:22.491Z,0
2016-12-07T06:32:22.543Z,0
2016-12-07T06:33:22.591Z,0
2016-12-07T06:34:22.655Z,0
2016-12-07T06:35:22.702Z,0
2016-12-07T06:36:22.784Z,0
2016-12-07T06:37:22.818Z,0
2016-12-07T06:38:22.915Z,0
2016-12-07T06:39:22.951Z,0
2016-12-07T06:40:22.982Z,0
2016-12-07T06:41:23.046Z,0
2016-12-07T06:42:23.114Z,0
2016-12-07T06:43:23.163Z,0
2016-12-07T06:44:23.224Z,0
2016-12-07T06:45:23.280Z,0
2016-12-07T06:46:23.310Z,0
2016-12-07T06:47:23.391Z,0
2016-12-07T06:48:23.447Z,0
2016-12-07T06:49:23.470Z,0
2016-12-07T06:50:23.863Z,0
2016-12-07T06:51:23.610Z,0
2016-12-07T06:52:23.641Z,0
2016-12-07T06:53:23.720Z,0
2016-12-07T06:54:23.762Z,0
2016-12-07T06:55:23.829Z,0
2016-12-07T06:56:23.902Z,0
2016-12-07T06:57:23.928Z,0
2016-12-07T06:58:24.297Z,0
2016-12-07T06:59:24.043Z,0
2016-12-07T07:00:24.088Z,0
2016-12-07T07:01:24.180Z,0
2016-12-07T07:02:24.514Z,0
2016-12-07T07:03:24.280Z,0
2016-12-07T07:04:24.321Z,0
2016-12-07T07:05:24.381Z,0
2016-12-07T07:06:24.453Z,0
2016-12-07T07:07:24.494Z,0
2016-12-07T07:08:24.555Z,0
2016-12-07T07:09:24.592Z,5
2016-12-07T07:10:24.670Z,5
2016-12-07T07:11:24.728Z,5
2016-12-07T07:12:24.779Z,5
2016-12-07T07:13:24.852Z,5
2016-12-07T07:14:24.905Z,5
2016-12-07T07:15:24.919Z,5
2016-12-07T07:16:25.003Z,5
2016-12-07T07:17:25.046Z,5
2016-12-07T07:18:25.096Z,5
2016-12-07T07:19:25.180Z,5
2016-12-07T07:20:25.220Z,5
2016-12-07T07:21:25.275Z,5
2016-12-07T07:22:25.320Z,5
2016-12-07T07:23:25.381Z,5
2016-12-07T07:24:25.783Z,5
2016-12-07T07:25:25.808Z,5
2016-12-07T07:26:25.531Z,5
2016-12-07T07:27:25.592Z,5
2016-12-07T07:28:25.676Z,5
2016-12-07T07:29:25.734Z,5
2016-12-07T07:30:25.775Z,5
2016-12-07T07:31:25.826Z,10
2016-12-07T07:32:25.910Z,10
2016-12-07T07:33:25.955Z,10
2016-12-07T07:34:25.998Z,10
2016-12-07T07:35:26.064Z,10
2016-12-07T07:36:26.121Z,10
2016-12-07T07:37:26.478Z,10
2016-12-07T07:38:26.232Z,10
2016-12-07T07:39:26.270Z,10
2016-12-07T07:40:26.331Z,10
2016-12-07T07:41:26.407Z,10
2016-12-07T07:42:26.476Z,10
2016-12-07T07:43:26.515Z,10
2016-12-07T07:44:26.565Z,10
2016-12-07T07:45:26.624Z,10
2016-12-07T07:46:26.674Z,10
2016-12-07T07:47:26.725Z,10
2016-12-07T07:48:26.773Z,10
2016-12-07T07:49:26.861Z,10
2016-12-07T07:50:26.884Z,10
2016-12-07T07:51:26.941Z,10
2016-12-07T07:52:27.001Z,10
2016-12-07T07:53:27.369Z,10
2016-12-07T07:54:27.112Z,10
2016-12-07T07:55:27.169Z,10
2016-12-07T07:56:27.232Z,10
2016-12-07T07:57:27.290Z,10
2016-12-07T07:58:27.329Z,10
2016-12-07T07:59:27.388Z,10
2016-12-07T08:00:27.445Z,10
2016-12-07T08:01:27.497Z,10
2016-12-07T08:02:27.562Z,10
2016-12-07T08:03:27.633Z,10
2016-12-07T08:04:27.688Z,15
2016-12-07T08:05:27.745Z,15
2016-12-07T08:06:27.779Z,15
2016-12-07T08:07:27.833Z,15
2016-12-07T08:08:27.909Z,15
2016-12-07T08:09:27.951Z,10
2016-12-07T08:10:28.034Z,15
2016-12-07T08:11:28.064Z,15
2016-12-07T08:12:28.104Z,15
2016-12-07T08:13:28.176Z,15
2016-12-07T08:14:28.222Z,15
2016-12-07T08:15:28.303Z,15
2016-12-07T08:16:28.358Z,15
2016-12-07T08:17:28.385Z,15
2016-12-07T08:18:28.458Z,15
2016-12-07T08:19:28.522Z,15
2016-12-07T08:20:28.565Z,15
2016-12-07T08:21:29.039Z,15
2016-12-07T08:22:28.685Z,15
2016-12-07T08:23:28.753Z,15
2016-12-07T08:24:28.815Z,15
2016-12-07T08:25:28.861Z,15
2016-12-07T08:26:28.936Z,15
2016-12-07T08:27:28.948Z,15
2016-12-07T08:28:29.006Z,15
2016-12-07T08:29:29.081Z,15
2016-12-07T08:30:29.132Z,15
2016-12-07T08:31:29.180Z,15
2016-12-07T08:32:29.230Z,15
2016-12-07T08:33:29.304Z,15
2016-12-07T08:34:29.378Z,15
2016-12-07T08:35:29.422Z,15
2016-12-07T08:36:29.448Z,15
2016-12-07T08:37:29.511Z,15
2016-12-07T08:38:29.582Z,10
2016-12-07T08:39:29.660Z,10
2016-12-07T08:40:29.714Z,15
2016-12-07T08:41:29.744Z,15
2016-12-07T08:42:29.806Z,15
2016-12-07T08:43:29.873Z,15
2016-12-07T08:44:29.924Z,15
2016-12-07T08:45:29.973Z,15
2016-12-07T08:46:30.036Z,15
2016-12-07T08:47:30.113Z,15
2016-12-07T08:48:30.136Z,15
2016-12-07T08:49:30.211Z,15
2016-12-07T08:50:30.264Z,15
2016-12-07T08:51:30.289Z,20
2016-12-07T08:52:30.346Z,20
2016-12-07T08:53:30.445Z,20
2016-12-07T08:54:30.488Z,20
2016-12-07T08:55:30.530Z,20
2016-12-07T08:56:30.591Z,20
2016-12-07T08:57:30.940Z,20
2016-12-07T08:58:30.719Z,20
2016-12-07T08:59:31.090Z,20
2016-12-07T09:00:30.819Z,20
2016-12-07T09:01:30.865Z,20
2016-12-07T09:02:30.937Z,20
2016-12-07T09:03:30.986Z,20
2016-12-07T09:04:31.044Z,20
2016-12-07T09:05:31.108Z,20
2016-12-07T09:06:31.134Z,20
2016-12-07T09:07:31.209Z,20
2016-12-07T09:08:31.556Z,20
2016-12-07T09:09:31.316Z,20
2016-12-07T09:10:31.419Z,20
2016-12-07T09:11:31.430Z,20
2016-12-07T09:12:31.497Z,20
2016-12-07T09:13:31.529Z,20
2016-12-07T09:14:31.595Z,20
2016-12-07T09:15:31.663Z,20
2016-12-07T09:16:31.712Z,20
2016-12-07T09:17:31.780Z,20
2016-12-07T09:18:31.856Z,20
2016-12-07T09:19:32.191Z,20
2016-12-07T09:20:31.938Z,20
2016-12-07T09:21:32.006Z,20
2016-12-07T09:22:32.250Z,20
2016-12-07T09:23:32.103Z,20
2016-12-07T09:24:32.167Z,20
2016-12-07T09:25:32.229Z,20
2016-12-07T09:26:32.287Z,25
2016-12-07T09:27:32.340Z,25
2016-12-07T09:28:32.403Z,25
2016-12-07T09:29:32.445Z,25
2016-12-07T09:30:32.533Z,25
2016-12-07T09:31:32.579Z,25
2016-12-07T09:32:32.629Z,25
2016-12-07T09:33:32.659Z,25
2016-12-07T09:34:32.755Z,25
2016-12-07T09:35:32.795Z,25
2016-12-07T09:36:32.855Z,25
2016-12-07T09:37:32.933Z,25
2016-12-07T09:38:32.955Z,25
2016-12-07T09:39:33.037Z,25
2016-12-07T09:40:33.086Z,20
2016-12-07T09:41:33.130Z,25
2016-12-07T09:42:33.185Z,25
2016-12-07T09:43:33.258Z,25
2016-12-07T09:44:33.336Z,30
2016-12-07T09:45:33.379Z,25
2016-12-07T09:46:33.423Z,30
2016-12-07T09:47:33.477Z,25
2016-12-07T09:48:33.552Z,25
2016-12-07T09:49:33.600Z,25
2016-12-07T09:50:33.626Z,30
2016-12-07T09:51:33.706Z,25
2016-12-07T09:52:34.102Z,30
2016-12-07T09:53:33.835Z,30
2016-12-07T09:54:33.898Z,30
2016-12-07T09:55:33.949Z,30
2016-12-07T09:56:34.003Z,30
2016-12-07T09:57:34.056Z,30
2016-12-07T09:58:34.117Z,30
2016-12-07T09:59:34.164Z,30
2016-12-07T10:00:34.216Z,30
2016-12-07T10:01:34.291Z,30
2016-12-07T10:02:34.333Z,35
2016-12-07T10:03:34.369Z,35
2016-12-07T10:04:34.444Z,35
2016-12-07T10:05:34.511Z,30
2016-12-07T10:06:34.550Z,30
2016-12-07T10:07:34.626Z,35
2016-12-07T10:08:34.702Z,35
2016-12-07T10:09:34.745Z,35
2016-12-07T10:10:34.809Z,35
2016-12-07T10:11:34.847Z,35
2016-12-07T10:12:34.925Z,35
2016-12-07T10:13:34.982Z,30
2016-12-07T10:14:35.009Z,35
2016-12-07T10:15:35.073Z,35
2016-12-07T10:16:35.137Z,30
2016-12-07T10:17:35.203Z,30
2016-12-07T10:18:35.253Z,30
2016-12-07T10:19:35.308Z,30
2016-12-07T10:20:35.693Z,35
2016-12-07T10:21:35.448Z,35
2016-12-07T10:22:35.491Z,35
2016-12-07T10:23:35.516Z,35
2016-12-07T10:24:35.573Z,35
2016-12-07T10:25:35.626Z,35
2016-12-07T10:26:35.709Z,35
2016-12-07T10:27:35.759Z,35
2016-12-07T10:28:35.820Z,35
2016-12-07T10:29:35.888Z,35
2016-12-07T10:30:35.947Z,35
2016-12-07T10:31:35.998Z,30
2016-12-07T10:32:36.056Z,30
2016-12-07T10:33:36.100Z,30
2016-12-07T10:34:36.157Z,30
2016-12-07T10:35:36.224Z,30
2016-12-07T10:36:36.284Z,30
2016-12-07T10:37:36.337Z,30
2016-12-07T10:38:36.411Z,25
2016-12-07T10:39:36.765Z,30
2016-12-07T10:40:36.507Z,30
2016-12-07T10:41:36.551Z,30
2016-12-07T10:42:36.625Z,30
2016-12-07T10:43:36.698Z,30
2016-12-07T10:44:36.752Z,30
2016-12-07T10:45:36.799Z,30
2016-12-07T10:46:36.832Z,30
2016-12-07T10:47:36.900Z,30
2016-12-07T10:48:36.959Z,30
2016-12-07T10:49:37.036Z,30
2016-12-07T10:50:37.078Z,35
2016-12-07T10:51:37.124Z,35
2016-12-07T10:52:37.175Z,35
2016-12-07T10:53:37.567Z,35
2016-12-07T10:54:37.323Z,35
2016-12-07T10:55:37.358Z,35
2016-12-07T10:56:37.416Z,35
2016-12-07T10:57:37.491Z,35
2016-12-07T10:58:37.545Z,35
2016-12-07T10:59:37.633Z,35
2016-12-07T11:00:37.659Z,35
2016-12-07T11:01:37.701Z,35
2016-12-07T11:02:37.748Z,30
2016-12-07T11:03:37.821Z,35
2016-12-07T11:04:37.881Z,35
2016-12-07T11:05:37.936Z,35
2016-12-07T11:06:37.999Z,35
2016-12-07T11:07:38.065Z,35
2016-12-07T11:08:38.121Z,35
2016-12-07T11:09:38.158Z,35
2016-12-07T11:10:38.215Z,35
2016-12-07T11:11:38.289Z,30
2016-12-07T11:12:38.356Z,35
2016-12-07T11:13:38.398Z,35
2016-12-07T11:14:38.457Z,35
2016-12-07T11:15:38.500Z,35
2016-12-07T11:16:38.558Z,35
2016-12-07T11:17:38.602Z,35
2016-12-07T11:18:38.675Z,35
2016-12-07T11:19:38.735Z,35
2016-12-07T11:20:38.818Z,35
2016-12-07T11:21:38.847Z,35
2016-12-07T11:22:38.932Z,35
2016-12-07T11:23:38.985Z,35
2016-12-07T11:24:39.028Z,35
2016-12-07T11:25:39.099Z,35
2016-12-07T11:26:39.139Z,35
2016-12-07T11:27:39.199Z,35
2016-12-07T11:28:39.268Z,35
2016-12-07T11:29:39.299Z,35
2016-12-07T11:30:39.387Z,35
2016-12-07T11:31:39.404Z,35
2016-12-07T11:32:39.491Z,35
2016-12-07T11:33:39.586Z,35
2016-12-07T11:34:39.618Z,35
2016-12-07T11:35:39.671Z,35
2016-12-07T11:36:39.740Z,35
2016-12-07T11:37:39.753Z,35
2016-12-07T11:38:39.876Z,40
2016-12-07T11:39:39.911Z,40
2016-12-07T11:40:39.955Z,40
2016-12-07T11:41:40.015Z,35
2016-12-07T11:42:40.071Z,35
2016-12-07T11:43:40.151Z,35
2016-12-07T11:44:40.200Z,35
2016-12-07T11:45:40.237Z,35
2016-12-07T11:46:40.307Z,35
2016-12-07T11:47:40.365Z,35
2016-12-07T11:48:40.428Z,30
2016-12-07T11:49:40.482Z,35
2016-12-07T11:50:40.542Z,35
2016-12-07T11:51:40.588Z,35
2016-12-07T11:52:40.659Z,35
2016-12-07T11:53:40.703Z,35
2016-12-07T11:54:40.774Z,35
2016-12-07T11:55:40.797Z,35
2016-12-07T11:56:40.873Z,40
2016-12-07T11:57:40.929Z,40
2016-12-07T11:58:40.988Z,40
2016-12-07T11:59:41.054Z,40
2016-12-07T12:00:41.267Z,40
2016-12-07T12:01:41.175Z,40
2016-12-07T12:02:41.231Z,40
2016-12-07T12:03:41.271Z,40
2016-12-07T12:04:41.365Z,40
2016-12-07T12:05:41.556Z,35
2016-12-07T12:06:41.456Z,35
2016-12-07T12:07:41.527Z,35
2016-12-07T12:08:41.583Z,40
2016-12-07T12:09:41.651Z,40
2016-12-07T12:10:41.687Z,40
2016-12-07T12:11:41.747Z,40
2016-12-07T12:12:41.807Z,35
2016-12-07T12:13:41.863Z,40
2016-12-07T12:14:41.916Z,40
2016-12-07T12:15:41.966Z,40
2016-12-07T12:16:42.045Z,40
2016-12-07T12:17:42.111Z,40
2016-12-07T12:18:42.193Z,40
2016-12-07T12:19:42.210Z,40
2016-12-07T12:20:42.251Z,40
2016-12-07T12:21:42.355Z,40
2016-12-07T12:22:42.408Z,40
2016-12-07T12:23:42.440Z,40
2016-12-07T12:24:42.512Z,40
2016-12-07T12:25:42.570Z,40
2016-12-07T12:26:42.630Z,40
2016-12-07T12:27:42.671Z,40
2016-12-07T12:28:43.053Z,40
2016-12-07T12:29:42.794Z,40
2016-12-07T12:30:42.835Z,40
2016-12-07T12:31:42.926Z,40
2016-12-07T12:32:42.974Z,35
2016-12-07T12:33:43.018Z,40
2016-12-07T12:34:43.083Z,40
2016-12-07T12:35:43.141Z,40
2016-12-07T12:36:43.224Z,40
2016-12-07T12:37:43.268Z,40
2016-12-07T12:38:43.324Z,35
2016-12-07T12:39:43.389Z,30
2016-12-07T12:40:43.425Z,40
2016-12-07T12:41:43.485Z,40
2016-12-07T12:42:43.587Z,40
2016-12-07T12:43:43.613Z,40
2016-12-07T12:44:43.657Z,40
2016-12-07T12:45:43.715Z,20
2016-12-07T12:46:44.083Z,35
2016-12-07T12:47:43.839Z,35
2016-12-07T12:48:43.891Z,35
2016-12-07T12:49:43.968Z,35
2016-12-07T12:50:44.015Z,20
2016-12-07T12:51:44.094Z,35
2016-12-07T12:52:44.112Z,35
2016-12-07T12:53:44.182Z,35
2016-12-07T12:54:44.236Z,35
2016-12-07T12:55:44.317Z,35
2016-12-07T12:56:44.374Z,30
2016-12-07T12:57:44.414Z,30
2016-12-07T12:58:44.469Z,30
2016-12-07T12:59:44.552Z,30
2016-12-07T13:00:44.593Z,30
2016-12-07T13:01:44.667Z,30
2016-12-07T13:02:44.700Z,30
2016-12-07T13:03:44.756Z,30
2016-12-07T13:04:45.155Z,30
2016-12-07T13:05:45.199Z,35
2016-12-07T13:06:44.969Z,35
2016-12-07T13:07:44.989Z,35
2016-12-07T13:08:45.059Z,30
2016-12-07T13:09:45.138Z,30
2016-12-07T13:10:45.152Z,35
2016-12-07T13:11:45.246Z,35
2016-12-07T13:12:45.290Z,30
2016-12-07T13:13:45.344Z,30
2016-12-07T13:14:45.394Z,25
2016-12-07T13:15:45.654Z,30
2016-12-07T13:16:45.520Z,30
2016-12-07T13:17:45.574Z,30
2016-12-07T13:18:45.633Z,30
2016-12-07T13:19:45.707Z,30
2016-12-07T13:20:45.764Z,30
2016-12-07T13:21:45.818Z,30
2016-12-07T13:22:45.858Z,30
2016-12-07T13:23:45.936Z,30
2016-12-07T13:24:45.991Z,30
2016-12-07T13:25:46.043Z,30
2016-12-07T13:26:46.121Z,25
2016-12-07T13:27:46.151Z,25
2016-12-07T13:28:46.202Z,25
2016-12-07T13:29:46.252Z,25
2016-12-07T13:30:46.635Z,25
2016-12-07T13:31:46.388Z,25
2016-12-07T13:32:46.739Z,25
2016-12-07T13:33:46.497Z,25
2016-12-07T13:34:46.578Z,25
2016-12-07T13:35:46.626Z,25
2016-12-07T13:36:46.685Z,25
2016-12-07T13:37:46.733Z,25
2016-12-07T13:38:47.106Z,25
2016-12-07T13:39:46.839Z,25
2016-12-07T13:40:46.899Z,25
2016-12-07T13:41:46.944Z,25
2016-12-07T13:42:47.017Z,25
2016-12-07T13:43:47.074Z,25
2016-12-07T13:44:47.113Z,25
2016-12-07T13:45:47.406Z,25
2016-12-07T13:46:47.439Z,25
2016-12-07T13:47:47.307Z,25
2016-12-07T13:48:47.369Z,25
2016-12-07T13:49:47.428Z,20
2016-12-07T13:50:47.488Z,20
2016-12-07T13:51:47.521Z,20
2016-12-07T13:52:47.588Z,20
2016-12-07T13:53:47.673Z,20
2016-12-07T13:54:47.707Z,20
2016-12-07T13:55:47.775Z,20
2016-12-07T13:56:47.807Z,15
2016-12-07T13:57:47.883Z,10
2016-12-07T13:58:47.938Z,10
2016-12-07T13:59:47.989Z,5
2016-12-07T14:00:48.064Z,5
2016-12-07T14:01:48.109Z,5
2016-12-07T14:02:48.386Z,5
2016-12-07T14:03:48.206Z,5
2016-12-07T14:04:48.287Z,5
2016-12-07T14:05:48.342Z,5
2016-12-07T14:06:48.400Z,5
2016-12-07T14:07:48.439Z,5
2016-12-07T14:08:48.499Z,5
2016-12-07T14:09:48.543Z,5
2016-12-07T14:10:48.609Z,5
2016-12-07T14:11:48.723Z,5
2016-12-07T14:12:48.707Z,5
2016-12-07T14:13:48.793Z,5
2016-12-07T14:14:48.827Z,5
2016-12-07T14:15:48.926Z,5
2016-12-07T14:16:49.175Z,5
2016-12-07T14:17:49.007Z,5
2016-12-07T14:18:49.068Z,5
2016-12-07T14:19:49.126Z,5
2016-12-07T14:20:49.215Z,5
2016-12-07T14:21:49.248Z,5
2016-12-07T14:22:49.318Z,5
2016-12-07T14:23:49.351Z,5
2016-12-07T14:24:49.415Z,5
2016-12-07T14:25:49.456Z,5
2016-12-07T14:26:49.536Z,5
2016-12-07T14:27:49.614Z,5
2016-12-07T14:28:49.656Z,5
2016-12-07T14:29:49.695Z,5
2016-12-07T14:30:49.776Z,5
2016-12-07T14:31:49.802Z,5
2016-12-07T14:32:49.891Z,5